Startpagina
METAR-TAF:

METAR-TAF

Vliegvelden :

Alice Springs, Australië

breedte: 23-48S, lengte: 133-53E, hoogte: 545 m

Actueel weer

Dit bericht is 29 minuten geleden gemaakt, om 18:30 UTC
Wind 3 kt uit het noordoosten
Temperatuur 21°C
Vochtigheid 83%
Druk 1010 hPa
Zicht 10 km of meer

METAR: YBAS 191830Z AUTO 04003KT 9999 // NCD 21/18 Q1010 RF00.0/001.2

Tijdstip: 04:29 (18:59 UTC)

Verwachting

Dit bericht is 1 uur en het 38 minuten geleden gemaakt, om 17:21 UTC
Verwachting geldig van 19 om 18 UTC tot 20 om 18 UTC
Wind 5 kt uit het noorden
Zicht 10 km of meer
geen wolken onder 1500 m en geen cumulonimbus
Van 20 om 0100 UTC
Wind 12 kt uit het oosten
Zicht 10 km of meer
geen wolken onder 1500 m en geen cumulonimbus
Van 20 om 1600 UTC
Wind 5 kt uit het westnoordwesten
Zicht 10 km of meer
geen wolken onder 1500 m en geen cumulonimbus

TAF: YBAS 191721Z 1918/2018 35005KT CAVOK FM200100 08012KT CAVOK FM201600 30005KT CAVOK

Waarnemingen en weersverwachtingen van meer dan 4000 vliegvelden (METAR en TAF).

De beschikbare stations zijn de gele en rode punten op de kaart.

Ga met uw muis naar het station om de naam te zien.

Klik dan om waarnemingen en weersverwachtingen te zien.

kaart wijzigen: klik op de groene knoppen met een zwart kruis om in te zoomen, op de groene knop met een streepje om uit te zoomen of op de groene pijlen voor aangrenzende kaarten.


METAR-TAF: